Meteo Giornale » Osservazioni meteo Stati Uniti (USA) » Presque Isle
ore: 05:41 - Osservazioni Meteo Presque Isle
Lat. 46° 41' N Lon. 68° 3' W Alt. 163 metri s.l.m.
6 °C
Foschia
Temp. 24 Ore
6 °C
22 °C
Nord
0 Km/h
Dew point 6 °C
Umidità 100 %
Visibilità 5 Km
Il sole sorge alle ore 05:52
Il sole tramonta alle ore 19:11
| Data e Ora | Cielo e Fenomeni | T °C | DP °C | Um. % | Pres. hPa | Vis. km | Vento km/h | |
|---|---|---|---|---|---|---|---|---|
| Oggi h: 05:41 | Foschia | 6 | 6 | 100 | 1019 | 5 | N 0 | |
| Oggi h: 04:56 | Poco Nuvoloso | 7 | 6 | 93 | 1019 | 10 | N 0 | |
| Oggi h: 03:56 | Molto Nuvoloso | 7 | 7 | 100 | 1019 | 10 | N 0 | |
| Oggi h: 02:56 | Sereno | 7 | 7 | 100 | 1019 | 10 | N 0 | |
| Oggi h: 01:56 | Sereno | 8 | 8 | 100 | 1018 | 10 | N 0 | |
| Oggi h: 00:56 | Sereno | 8 | 8 | 100 | 1018 | 10 | N 0 | |
| Ieri h: 23:56 | Poco Nuvoloso | 9 | 9 | 100 | 1018 | 10 | N 0 | |
| Ieri h: 23:41 | Sereno | 9 | 8 | 93 | 1018 | 10 | N 0 | |
| Ieri h: 23:33 | Foschia | 9 | 9 | 100 | 1018 | 2 | N 0 | |
| Ieri h: 22:56 | Poco Nuvoloso | 10 | 9 | 93 | 1018 | 10 | N 0 | |
| Ieri h: 21:56 | Sereno | 11 | 10 | 93 | 1018 | 10 | N 0 | |
| Ieri h: 20:56 | Sereno | 12 | 10 | 87 | 1018 | 10 | N 0 | |
| Ieri h: 19:56 | Sereno | 17 | 9 | 59 | 1017 | 10 | NO 7.4 | |
| Ieri h: 18:56 | Sereno | 19 | 10 | 55 | 1017 | 10 | N/NO 11.1 | |
| Ieri h: 17:56 | Sereno | 21 | 10 | 49 | 1017 | 10 | N/NO 16.7 | |
| Ieri h: 16:56 | Sereno | 21 | 10 | 49 | 1016 | 10 | N/NO 16.7 | |
| Ieri h: 15:56 | Poco Nuvoloso | 22 | 10 | 46 | 1016 | 10 | O/NO 14.8 | |
| Ieri h: 14:56 | Poco Nuvoloso | 22 | 11 | 49 | 1017 | 10 | N/NO 20.3 | |
| Ieri h: 13:56 | Nuvoloso | 22 | 11 | 49 | 1017 | 10 | O/NO 20.3 | |
| Ieri h: 12:56 | Poco Nuvoloso | 20 | 10 | 52 | 1017 | 10 | O/NO 13 | |
| Ieri h: 11:56 | Poco Nuvoloso | 19 | 11 | 59 | 1017 | 10 | NO 14.8 | |
| Ieri h: 10:56 | Poco Nuvoloso | 18 | 10 | 59 | 1018 | 10 | N 11.1 | |
| Ieri h: 09:56 | Sereno | 17 | 10 | 63 | 1018 | 10 | N/NO 20.3 | |
| Ieri h: 08:56 | Sereno | 14 | 9 | 71 | 1018 | 10 | NO 13 | |
| Ieri h: 07:56 | Sereno | 13 | 9 | 76 | 1018 | 10 | NO 14.8 | |
| Ieri h: 06:56 | Sereno | 11 | 8 | 81 | 1017 | 10 | NO 14.8 | |
| Ieri h: 05:56 | Sereno | 7 | 7 | 100 | 1017 | 10 | N 0 | |



